sensor_id;sensor_type;location;lat;lon;timestamp;P1;durP1;ratioP1;P2;durP2;ratioP2
9763;SDS011;4921;43.214;27.936;2023-05-20T00:01:55;7.03;;;5.57;;
9763;SDS011;4921;43.214;27.936;2023-05-20T00:04:22;5.23;;;4.80;;
9763;SDS011;4921;43.214;27.936;2023-05-20T00:06:49;6.13;;;5.20;;
9763;SDS011;4921;43.214;27.936;2023-05-20T00:09:16;5.37;;;4.87;;
9763;SDS011;4921;43.214;27.936;2023-05-20T00:11:43;6.87;;;5.00;;
9763;SDS011;4921;43.214;27.936;2023-05-20T00:14:12;8.30;;;5.23;;
9763;SDS011;4921;43.214;27.936;2023-05-20T00:16:39;10.27;;;5.40;;
9763;SDS011;4921;43.214;27.936;2023-05-20T00:19:06;5.77;;;5.17;;
9763;SDS011;4921;43.214;27.936;2023-05-20T00:21:33;6.23;;;4.97;;
9763;SDS011;4921;43.214;27.936;2023-05-20T00:24:00;6.10;;;5.50;;
9763;SDS011;4921;43.214;27.936;2023-05-20T00:26:27;5.77;;;5.13;;
9763;SDS011;4921;43.214;27.936;2023-05-20T00:28:55;7.30;;;5.77;;
9763;SDS011;4921;43.214;27.936;2023-05-20T00:31:23;6.90;;;5.70;;
9763;SDS011;4921;43.214;27.936;2023-05-20T00:33:50;5.63;;;5.13;;
9763;SDS011;4921;43.214;27.936;2023-05-20T00:36:17;5.67;;;5.10;;
9763;SDS011;4921;43.214;27.936;2023-05-20T00:38:44;5.37;;;4.87;;
9763;SDS011;4921;43.214;27.936;2023-05-20T00:41:11;5.53;;;5.03;;
9763;SDS011;4921;43.214;27.936;2023-05-20T00:43:37;8.10;;;5.50;;
9763;SDS011;4921;43.214;27.936;2023-05-20T00:46:05;7.03;;;5.53;;
9763;SDS011;4921;43.214;27.936;2023-05-20T00:48:38;9.53;;;5.83;;
9763;SDS011;4921;43.214;27.936;2023-05-20T00:51:07;7.03;;;5.17;;
9763;SDS011;4921;43.214;27.936;2023-05-20T00:53:34;6.47;;;5.47;;
9763;SDS011;4921;43.214;27.936;2023-05-20T00:56:02;5.90;;;5.10;;
9763;SDS011;4921;43.214;27.936;2023-05-20T00:58:29;5.83;;;5.33;;
9763;SDS011;4921;43.214;27.936;2023-05-20T01:00:57;7.47;;;5.33;;
9763;SDS011;4921;43.214;27.936;2023-05-20T01:03:24;5.20;;;4.80;;
9763;SDS011;4921;43.214;27.936;2023-05-20T01:05:52;5.47;;;5.07;;
9763;SDS011;4921;43.214;27.936;2023-05-20T01:08:19;5.77;;;5.23;;
9763;SDS011;4921;43.214;27.936;2023-05-20T01:10:48;7.70;;;5.23;;
9763;SDS011;4921;43.214;27.936;2023-05-20T01:13:24;6.17;;;5.37;;
9763;SDS011;4921;43.214;27.936;2023-05-20T01:15:56;8.37;;;5.23;;
9763;SDS011;4921;43.214;27.936;2023-05-20T01:18:25;6.23;;;5.03;;
9763;SDS011;4921;43.214;27.936;2023-05-20T01:20:56;6.67;;;5.40;;
9763;SDS011;4921;43.214;27.936;2023-05-20T01:23:32;8.00;;;5.40;;
9763;SDS011;4921;43.214;27.936;2023-05-20T01:26:00;6.13;;;5.17;;
9763;SDS011;4921;43.214;27.936;2023-05-20T01:28:27;8.10;;;5.13;;
9763;SDS011;4921;43.214;27.936;2023-05-20T01:30:55;8.70;;;5.17;;
9763;SDS011;4921;43.214;27.936;2023-05-20T01:33:23;6.20;;;5.60;;
9763;SDS011;4921;43.214;27.936;2023-05-20T01:35:52;5.60;;;5.10;;
9763;SDS011;4921;43.214;27.936;2023-05-20T01:38:20;6.57;;;5.37;;
9763;SDS011;4921;43.214;27.936;2023-05-20T01:40:50;6.33;;;5.20;;
9763;SDS011;4921;43.214;27.936;2023-05-20T01:43:20;5.53;;;5.03;;
9763;SDS011;4921;43.214;27.936;2023-05-20T01:45:47;7.83;;;5.80;;
9763;SDS011;4921;43.214;27.936;2023-05-20T01:48:14;10.57;;;5.00;;
9763;SDS011;4921;43.214;27.936;2023-05-20T01:50:42;7.03;;;5.90;;
9763;SDS011;4921;43.214;27.936;2023-05-20T01:53:09;7.03;;;5.50;;
9763;SDS011;4921;43.214;27.936;2023-05-20T01:55:35;5.63;;;5.07;;
9763;SDS011;4921;43.214;27.936;2023-05-20T01:58:04;6.70;;;5.57;;
9763;SDS011;4921;43.214;27.936;2023-05-20T02:00:31;9.10;;;5.73;;
9763;SDS011;4921;43.214;27.936;2023-05-20T02:02:59;9.40;;;5.33;;
9763;SDS011;4921;43.214;27.936;2023-05-20T02:05:27;6.33;;;5.57;;
9763;SDS011;4921;43.214;27.936;2023-05-20T02:07:54;6.73;;;5.13;;
9763;SDS011;4921;43.214;27.936;2023-05-20T02:10:20;7.67;;;5.30;;
9763;SDS011;4921;43.214;27.936;2023-05-20T02:12:47;6.57;;;5.07;;
9763;SDS011;4921;43.214;27.936;2023-05-20T02:15:16;5.70;;;5.10;;
9763;SDS011;4921;43.214;27.936;2023-05-20T02:17:43;7.37;;;5.50;;
9763;SDS011;4921;43.214;27.936;2023-05-20T02:20:10;5.70;;;5.20;;
9763;SDS011;4921;43.214;27.936;2023-05-20T02:22:38;6.07;;;5.27;;
9763;SDS011;4921;43.214;27.936;2023-05-20T02:25:05;6.60;;;5.17;;
9763;SDS011;4921;43.214;27.936;2023-05-20T02:27:33;6.67;;;5.17;;
9763;SDS011;4921;43.214;27.936;2023-05-20T02:30:00;6.23;;;5.30;;
9763;SDS011;4921;43.214;27.936;2023-05-20T02:32:28;5.90;;;5.20;;
9763;SDS011;4921;43.214;27.936;2023-05-20T02:34:55;7.47;;;5.70;;
9763;SDS011;4921;43.214;27.936;2023-05-20T02:37:22;6.27;;;4.93;;
9763;SDS011;4921;43.214;27.936;2023-05-20T02:39:50;6.97;;;5.10;;
9763;SDS011;4921;43.214;27.936;2023-05-20T02:42:17;5.60;;;5.03;;
9763;SDS011;4921;43.214;27.936;2023-05-20T02:44:44;8.03;;;5.17;;
9763;SDS011;4921;43.214;27.936;2023-05-20T02:47:11;5.47;;;4.97;;
9763;SDS011;4921;43.214;27.936;2023-05-20T02:49:40;7.03;;;4.97;;
9763;SDS011;4921;43.214;27.936;2023-05-20T02:52:07;5.30;;;4.80;;
9763;SDS011;4921;43.214;27.936;2023-05-20T02:54:34;5.77;;;5.27;;
9763;SDS011;4921;43.214;27.936;2023-05-20T02:57:01;5.23;;;4.50;;
9763;SDS011;4921;43.214;27.936;2023-05-20T02:59:28;8.93;;;5.47;;
9763;SDS011;4921;43.214;27.936;2023-05-20T03:01:55;7.90;;;5.10;;
9763;SDS011;4921;43.214;27.936;2023-05-20T03:04:22;5.97;;;5.00;;
9763;SDS011;4921;43.214;27.936;2023-05-20T03:06:51;7.03;;;5.30;;
9763;SDS011;4921;43.214;27.936;2023-05-20T03:09:21;5.90;;;4.77;;
9763;SDS011;4921;43.214;27.936;2023-05-20T03:11:49;7.40;;;5.23;;
9763;SDS011;4921;43.214;27.936;2023-05-20T03:14:15;10.83;;;5.53;;
9763;SDS011;4921;43.214;27.936;2023-05-20T03:16:42;7.40;;;5.60;;
9763;SDS011;4921;43.214;27.936;2023-05-20T03:19:09;7.50;;;5.13;;
9763;SDS011;4921;43.214;27.936;2023-05-20T03:21:36;6.50;;;5.73;;
9763;SDS011;4921;43.214;27.936;2023-05-20T03:24:05;7.07;;;5.27;;
9763;SDS011;4921;43.214;27.936;2023-05-20T03:26:32;8.47;;;5.27;;
9763;SDS011;4921;43.214;27.936;2023-05-20T03:29:01;6.73;;;5.60;;
9763;SDS011;4921;43.214;27.936;2023-05-20T03:31:29;6.53;;;5.90;;
9763;SDS011;4921;43.214;27.936;2023-05-20T03:33:55;5.67;;;5.10;;
9763;SDS011;4921;43.214;27.936;2023-05-20T03:36:22;6.77;;;5.43;;
9763;SDS011;4921;43.214;27.936;2023-05-20T03:38:49;5.07;;;4.60;;
9763;SDS011;4921;43.214;27.936;2023-05-20T03:41:18;6.30;;;4.70;;
9763;SDS011;4921;43.214;27.936;2023-05-20T03:43:45;7.07;;;5.30;;
9763;SDS011;4921;43.214;27.936;2023-05-20T03:46:12;6.60;;;4.87;;
9763;SDS011;4921;43.214;27.936;2023-05-20T03:48:38;8.93;;;4.97;;
9763;SDS011;4921;43.214;27.936;2023-05-20T03:51:05;6.83;;;4.60;;
9763;SDS011;4921;43.214;27.936;2023-05-20T03:53:32;5.50;;;4.60;;
9763;SDS011;4921;43.214;27.936;2023-05-20T03:55:59;5.37;;;4.20;;
9763;SDS011;4921;43.214;27.936;2023-05-20T03:58:28;5.50;;;5.00;;
9763;SDS011;4921;43.214;27.936;2023-05-20T04:00:55;5.03;;;4.60;;
9763;SDS011;4921;43.214;27.936;2023-05-20T04:03:22;7.47;;;4.77;;
9763;SDS011;4921;43.214;27.936;2023-05-20T04:05:49;6.27;;;5.10;;
9763;SDS011;4921;43.214;27.936;2023-05-20T04:08:16;6.97;;;4.70;;
9763;SDS011;4921;43.214;27.936;2023-05-20T04:10:44;5.57;;;5.07;;
9763;SDS011;4921;43.214;27.936;2023-05-20T04:13:11;6.73;;;4.73;;
9763;SDS011;4921;43.214;27.936;2023-05-20T04:15:41;6.80;;;5.00;;
9763;SDS011;4921;43.214;27.936;2023-05-20T04:18:08;6.63;;;5.17;;
9763;SDS011;4921;43.214;27.936;2023-05-20T04:20:35;5.40;;;4.90;;
9763;SDS011;4921;43.214;27.936;2023-05-20T04:23:02;6.77;;;5.23;;
9763;SDS011;4921;43.214;27.936;2023-05-20T04:25:29;8.10;;;5.70;;
9763;SDS011;4921;43.214;27.936;2023-05-20T04:27:56;7.87;;;5.47;;
9763;SDS011;4921;43.214;27.936;2023-05-20T04:30:23;8.13;;;5.63;;
9763;SDS011;4921;43.214;27.936;2023-05-20T04:32:52;5.73;;;5.13;;
9763;SDS011;4921;43.214;27.936;2023-05-20T04:35:19;6.70;;;5.00;;
9763;SDS011;4921;43.214;27.936;2023-05-20T04:37:50;6.33;;;5.47;;
9763;SDS011;4921;43.214;27.936;2023-05-20T04:40:18;6.60;;;5.57;;
9763;SDS011;4921;43.214;27.936;2023-05-20T04:42:46;6.00;;;5.40;;
9763;SDS011;4921;43.214;27.936;2023-05-20T04:45:12;5.30;;;4.80;;
9763;SDS011;4921;43.214;27.936;2023-05-20T04:47:39;7.77;;;5.33;;
9763;SDS011;4921;43.214;27.936;2023-05-20T04:50:10;8.30;;;5.23;;
9763;SDS011;4921;43.214;27.936;2023-05-20T04:52:38;6.33;;;5.23;;
9763;SDS011;4921;43.214;27.936;2023-05-20T04:55:06;5.93;;;5.40;;
9763;SDS011;4921;43.214;27.936;2023-05-20T04:57:35;6.10;;;5.37;;
9763;SDS011;4921;43.214;27.936;2023-05-20T05:00:04;8.30;;;6.00;;
9763;SDS011;4921;43.214;27.936;2023-05-20T05:02:33;7.57;;;5.83;;
9763;SDS011;4921;43.214;27.936;2023-05-20T05:05:00;7.70;;;5.47;;
9763;SDS011;4921;43.214;27.936;2023-05-20T05:07:28;8.60;;;5.70;;
9763;SDS011;4921;43.214;27.936;2023-05-20T05:09:55;6.43;;;5.63;;
9763;SDS011;4921;43.214;27.936;2023-05-20T05:12:22;7.90;;;6.20;;
9763;SDS011;4921;43.214;27.936;2023-05-20T05:14:49;7.13;;;5.83;;
9763;SDS011;4921;43.214;27.936;2023-05-20T05:17:16;9.03;;;5.77;;
9763;SDS011;4921;43.214;27.936;2023-05-20T05:19:43;9.63;;;6.20;;
9763;SDS011;4921;43.214;27.936;2023-05-20T05:22:09;8.33;;;6.03;;
9763;SDS011;4921;43.214;27.936;2023-05-20T05:24:38;8.43;;;6.00;;
9763;SDS011;4921;43.214;27.936;2023-05-20T05:27:05;7.67;;;6.47;;
9763;SDS011;4921;43.214;27.936;2023-05-20T05:29:32;7.87;;;6.30;;
9763;SDS011;4921;43.214;27.936;2023-05-20T05:31:59;7.77;;;6.43;;
9763;SDS011;4921;43.214;27.936;2023-05-20T05:34:26;6.13;;;5.53;;
9763;SDS011;4921;43.214;27.936;2023-05-20T05:36:53;7.33;;;6.33;;
9763;SDS011;4921;43.214;27.936;2023-05-20T05:39:19;7.57;;;6.13;;
9763;SDS011;4921;43.214;27.936;2023-05-20T05:41:48;11.70;;;6.43;;
9763;SDS011;4921;43.214;27.936;2023-05-20T05:44:15;6.73;;;5.60;;
9763;SDS011;4921;43.214;27.936;2023-05-20T05:46:42;8.67;;;5.90;;
9763;SDS011;4921;43.214;27.936;2023-05-20T05:49:08;7.33;;;5.97;;
9763;SDS011;4921;43.214;27.936;2023-05-20T05:51:36;7.73;;;5.87;;
9763;SDS011;4921;43.214;27.936;2023-05-20T05:54:03;10.43;;;5.73;;
9763;SDS011;4921;43.214;27.936;2023-05-20T05:56:30;7.40;;;5.90;;
9763;SDS011;4921;43.214;27.936;2023-05-20T05:58:58;6.20;;;5.60;;
9763;SDS011;4921;43.214;27.936;2023-05-20T06:01:25;8.43;;;5.80;;
9763;SDS011;4921;43.214;27.936;2023-05-20T06:03:52;6.00;;;5.40;;
9763;SDS011;4921;43.214;27.936;2023-05-20T06:06:19;7.13;;;5.77;;
9763;SDS011;4921;43.214;27.936;2023-05-20T06:08:46;6.90;;;6.03;;
9763;SDS011;4921;43.214;27.936;2023-05-20T06:11:13;5.87;;;5.37;;
9763;SDS011;4921;43.214;27.936;2023-05-20T06:13:40;6.10;;;5.43;;
9763;SDS011;4921;43.214;27.936;2023-05-20T06:16:08;6.77;;;5.47;;
9763;SDS011;4921;43.214;27.936;2023-05-20T06:18:35;9.23;;;5.40;;
9763;SDS011;4921;43.214;27.936;2023-05-20T06:21:03;8.90;;;5.47;;
9763;SDS011;4921;43.214;27.936;2023-05-20T06:23:30;9.00;;;5.57;;
9763;SDS011;4921;43.214;27.936;2023-05-20T06:25:57;7.23;;;5.77;;
9763;SDS011;4921;43.214;27.936;2023-05-20T06:28:24;8.57;;;5.50;;
9763;SDS011;4921;43.214;27.936;2023-05-20T06:30:51;5.23;;;4.53;;
9763;SDS011;4921;43.214;27.936;2023-05-20T06:33:21;6.30;;;4.93;;
9763;SDS011;4921;43.214;27.936;2023-05-20T06:35:50;5.63;;;4.97;;
9763;SDS011;4921;43.214;27.936;2023-05-20T06:38:17;5.80;;;5.20;;
9763;SDS011;4921;43.214;27.936;2023-05-20T06:40:44;6.83;;;4.60;;
9763;SDS011;4921;43.214;27.936;2023-05-20T06:43:11;5.00;;;4.50;;
9763;SDS011;4921;43.214;27.936;2023-05-20T06:45:38;5.83;;;4.63;;
9763;SDS011;4921;43.214;27.936;2023-05-20T06:48:05;4.50;;;4.10;;
9763;SDS011;4921;43.214;27.936;2023-05-20T06:50:34;7.57;;;4.20;;
9763;SDS011;4921;43.214;27.936;2023-05-20T06:53:01;5.67;;;4.47;;
9763;SDS011;4921;43.214;27.936;2023-05-20T06:55:28;6.03;;;4.43;;
9763;SDS011;4921;43.214;27.936;2023-05-20T06:57:55;6.03;;;4.33;;
9763;SDS011;4921;43.214;27.936;2023-05-20T07:00:22;4.83;;;4.43;;
9763;SDS011;4921;43.214;27.936;2023-05-20T07:02:49;5.33;;;4.30;;
9763;SDS011;4921;43.214;27.936;2023-05-20T07:05:16;6.50;;;4.50;;
9763;SDS011;4921;43.214;27.936;2023-05-20T07:07:44;5.73;;;4.37;;
9763;SDS011;4921;43.214;27.936;2023-05-20T07:10:11;7.73;;;4.50;;
9763;SDS011;4921;43.214;27.936;2023-05-20T07:12:38;5.77;;;4.40;;
9763;SDS011;4921;43.214;27.936;2023-05-20T07:15:06;4.90;;;4.40;;
9763;SDS011;4921;43.214;27.936;2023-05-20T07:17:33;8.90;;;4.20;;
9763;SDS011;4921;43.214;27.936;2023-05-20T07:20:00;6.67;;;4.57;;
9763;SDS011;4921;43.214;27.936;2023-05-20T07:22:28;5.20;;;4.80;;
9763;SDS011;4921;43.214;27.936;2023-05-20T07:24:56;5.40;;;4.90;;
9763;SDS011;4921;43.214;27.936;2023-05-20T07:27:25;9.90;;;4.80;;
9763;SDS011;4921;43.214;27.936;2023-05-20T07:29:52;6.10;;;4.70;;
9763;SDS011;4921;43.214;27.936;2023-05-20T07:32:19;8.67;;;5.07;;
9763;SDS011;4921;43.214;27.936;2023-05-20T07:34:46;5.90;;;5.07;;
9763;SDS011;4921;43.214;27.936;2023-05-20T07:37:13;6.67;;;5.20;;
9763;SDS011;4921;43.214;27.936;2023-05-20T07:39:40;6.73;;;5.10;;
9763;SDS011;4921;43.214;27.936;2023-05-20T07:42:09;6.37;;;5.00;;
9763;SDS011;4921;43.214;27.936;2023-05-20T07:44:36;6.93;;;4.90;;
9763;SDS011;4921;43.214;27.936;2023-05-20T07:47:04;5.73;;;5.13;;
9763;SDS011;4921;43.214;27.936;2023-05-20T07:49:31;8.70;;;5.20;;
9763;SDS011;4921;43.214;27.936;2023-05-20T07:51:58;5.67;;;5.03;;
9763;SDS011;4921;43.214;27.936;2023-05-20T07:54:25;8.40;;;5.00;;
9763;SDS011;4921;43.214;27.936;2023-05-20T07:56:52;8.50;;;5.77;;
9763;SDS011;4921;43.214;27.936;2023-05-20T07:59:20;7.53;;;5.60;;
9763;SDS011;4921;43.214;27.936;2023-05-20T08:01:47;7.80;;;5.90;;
9763;SDS011;4921;43.214;27.936;2023-05-20T08:04:14;6.83;;;6.07;;
9763;SDS011;4921;43.214;27.936;2023-05-20T08:06:41;7.03;;;6.07;;
9763;SDS011;4921;43.214;27.936;2023-05-20T08:09:08;8.80;;;6.63;;
9763;SDS011;4921;43.214;27.936;2023-05-20T08:11:35;8.63;;;6.90;;
9763;SDS011;4921;43.214;27.936;2023-05-20T08:14:02;10.33;;;7.40;;
9763;SDS011;4921;43.214;27.936;2023-05-20T08:16:31;7.87;;;6.90;;
9763;SDS011;4921;43.214;27.936;2023-05-20T08:18:58;9.40;;;6.60;;
9763;SDS011;4921;43.214;27.936;2023-05-20T08:21:25;7.73;;;6.47;;
9763;SDS011;4921;43.214;27.936;2023-05-20T08:23:52;9.00;;;6.73;;
9763;SDS011;4921;43.214;27.936;2023-05-20T08:26:19;9.30;;;7.37;;
9763;SDS011;4921;43.214;27.936;2023-05-20T08:28:47;9.23;;;8.23;;
9763;SDS011;4921;43.214;27.936;2023-05-20T08:31:14;13.00;;;8.17;;
9763;SDS011;4921;43.214;27.936;2023-05-20T08:33:43;9.37;;;7.47;;
9763;SDS011;4921;43.214;27.936;2023-05-20T08:36:10;12.10;;;7.97;;
9763;SDS011;4921;43.214;27.936;2023-05-20T08:38:37;8.33;;;7.53;;
9763;SDS011;4921;43.214;27.936;2023-05-20T08:41:04;9.43;;;7.00;;
9763;SDS011;4921;43.214;27.936;2023-05-20T08:43:31;7.50;;;6.73;;
9763;SDS011;4921;43.214;27.936;2023-05-20T08:45:58;9.60;;;7.00;;
9763;SDS011;4921;43.214;27.936;2023-05-20T08:48:27;7.93;;;7.17;;
9763;SDS011;4921;43.214;27.936;2023-05-20T08:50:57;8.27;;;7.03;;
9763;SDS011;4921;43.214;27.936;2023-05-20T08:53:24;8.43;;;7.63;;
9763;SDS011;4921;43.214;27.936;2023-05-20T08:55:52;9.60;;;7.53;;
9763;SDS011;4921;43.214;27.936;2023-05-20T08:58:22;9.23;;;6.83;;
9763;SDS011;4921;43.214;27.936;2023-05-20T09:00:50;11.60;;;8.20;;
9763;SDS011;4921;43.214;27.936;2023-05-20T09:03:17;8.63;;;7.67;;
9763;SDS011;4921;43.214;27.936;2023-05-20T09:05:45;12.17;;;7.97;;
9763;SDS011;4921;43.214;27.936;2023-05-20T09:08:13;10.47;;;7.97;;
9763;SDS011;4921;43.214;27.936;2023-05-20T09:10:40;9.90;;;8.30;;
9763;SDS011;4921;43.214;27.936;2023-05-20T09:13:08;8.23;;;7.53;;
9763;SDS011;4921;43.214;27.936;2023-05-20T09:15:37;9.60;;;8.63;;
9763;SDS011;4921;43.214;27.936;2023-05-20T09:18:05;10.00;;;9.00;;
9763;SDS011;4921;43.214;27.936;2023-05-20T09:20:33;10.87;;;8.50;;
9763;SDS011;4921;43.214;27.936;2023-05-20T09:23:03;10.37;;;8.70;;
9763;SDS011;4921;43.214;27.936;2023-05-20T09:25:32;8.73;;;7.67;;
9763;SDS011;4921;43.214;27.936;2023-05-20T09:28:00;10.03;;;8.17;;
9763;SDS011;4921;43.214;27.936;2023-05-20T09:30:27;10.17;;;7.97;;
9763;SDS011;4921;43.214;27.936;2023-05-20T09:32:54;8.53;;;7.73;;
9763;SDS011;4921;43.214;27.936;2023-05-20T09:35:22;8.90;;;8.07;;
9763;SDS011;4921;43.214;27.936;2023-05-20T09:37:50;8.47;;;7.67;;
9763;SDS011;4921;43.214;27.936;2023-05-20T09:40:20;8.77;;;7.97;;
9763;SDS011;4921;43.214;27.936;2023-05-20T09:42:53;9.30;;;8.17;;
9763;SDS011;4921;43.214;27.936;2023-05-20T09:45:22;9.40;;;7.63;;
9763;SDS011;4921;43.214;27.936;2023-05-20T09:47:49;8.73;;;7.83;;
9763;SDS011;4921;43.214;27.936;2023-05-20T09:50:17;9.07;;;7.43;;
9763;SDS011;4921;43.214;27.936;2023-05-20T09:52:46;11.30;;;8.57;;
9763;SDS011;4921;43.214;27.936;2023-05-20T09:55:15;9.13;;;8.20;;
9763;SDS011;4921;43.214;27.936;2023-05-20T09:57:43;9.70;;;8.70;;
9763;SDS011;4921;43.214;27.936;2023-05-20T10:00:13;8.03;;;7.33;;
9763;SDS011;4921;43.214;27.936;2023-05-20T10:02:42;8.80;;;8.00;;
9763;SDS011;4921;43.214;27.936;2023-05-20T10:05:14;13.37;;;8.37;;
9763;SDS011;4921;43.214;27.936;2023-05-20T10:10:47;9.97;;;8.90;;
9763;SDS011;4921;43.214;27.936;2023-05-20T10:13:22;10.27;;;9.23;;
9763;SDS011;4921;43.214;27.936;2023-05-20T10:16:05;12.93;;;9.37;;
9763;SDS011;4921;43.214;27.936;2023-05-20T10:18:41;12.10;;;9.87;;
9763;SDS011;4921;43.214;27.936;2023-05-20T10:21:15;12.67;;;9.80;;
9763;SDS011;4921;43.214;27.936;2023-05-20T10:23:42;10.57;;;9.57;;
9763;SDS011;4921;43.214;27.936;2023-05-20T10:26:09;10.67;;;9.60;;
9763;SDS011;4921;43.214;27.936;2023-05-20T10:28:37;10.33;;;9.10;;
9763;SDS011;4921;43.214;27.936;2023-05-20T10:31:15;9.87;;;8.53;;
9763;SDS011;4921;43.214;27.936;2023-05-20T10:33:44;13.87;;;9.57;;
9763;SDS011;4921;43.214;27.936;2023-05-20T10:36:21;9.80;;;8.80;;
9763;SDS011;4921;43.214;27.936;2023-05-20T10:38:52;11.83;;;8.77;;
9763;SDS011;4921;43.214;27.936;2023-05-20T10:41:20;10.53;;;6.10;;
9763;SDS011;4921;43.214;27.936;2023-05-20T10:43:58;8.47;;;4.87;;
9763;SDS011;4921;43.214;27.936;2023-05-20T10:46:27;6.17;;;3.80;;
9763;SDS011;4921;43.214;27.936;2023-05-20T10:48:55;6.90;;;4.43;;
9763;SDS011;4921;43.214;27.936;2023-05-20T10:51:22;5.40;;;3.60;;
9763;SDS011;4921;43.214;27.936;2023-05-20T10:53:51;10.07;;;4.80;;
9763;SDS011;4921;43.214;27.936;2023-05-20T10:56:20;6.67;;;5.70;;
9763;SDS011;4921;43.214;27.936;2023-05-20T10:58:49;10.10;;;5.50;;
9763;SDS011;4921;43.214;27.936;2023-05-20T11:01:17;4.60;;;4.10;;
9763;SDS011;4921;43.214;27.936;2023-05-20T11:03:50;5.47;;;3.80;;
9763;SDS011;4921;43.214;27.936;2023-05-20T11:06:24;6.47;;;3.70;;
9763;SDS011;4921;43.214;27.936;2023-05-20T11:08:52;8.10;;;3.97;;
9763;SDS011;4921;43.214;27.936;2023-05-20T11:11:20;8.43;;;3.70;;
9763;SDS011;4921;43.214;27.936;2023-05-20T11:13:49;8.17;;;3.80;;
9763;SDS011;4921;43.214;27.936;2023-05-20T11:16:17;11.47;;;3.83;;
9763;SDS011;4921;43.214;27.936;2023-05-20T11:18:47;9.30;;;3.70;;
9763;SDS011;4921;43.214;27.936;2023-05-20T11:21:16;6.03;;;4.07;;
9763;SDS011;4921;43.214;27.936;2023-05-20T11:23:44;7.40;;;4.93;;
9763;SDS011;4921;43.214;27.936;2023-05-20T11:26:13;11.77;;;3.77;;
9763;SDS011;4921;43.214;27.936;2023-05-20T11:28:39;4.97;;;3.93;;
9763;SDS011;4921;43.214;27.936;2023-05-20T11:31:07;9.47;;;4.10;;
9763;SDS011;4921;43.214;27.936;2023-05-20T11:33:35;7.37;;;4.43;;
9763;SDS011;4921;43.214;27.936;2023-05-20T11:36:06;6.93;;;4.30;;
9763;SDS011;4921;43.214;27.936;2023-05-20T11:38:40;8.47;;;4.33;;
9763;SDS011;4921;43.214;27.936;2023-05-20T11:41:07;6.17;;;4.60;;
9763;SDS011;4921;43.214;27.936;2023-05-20T11:43:34;7.53;;;4.70;;
9763;SDS011;4921;43.214;27.936;2023-05-20T11:46:01;9.80;;;4.87;;
9763;SDS011;4921;43.214;27.936;2023-05-20T11:48:30;7.47;;;4.77;;
9763;SDS011;4921;43.214;27.936;2023-05-20T11:50:57;6.70;;;4.10;;
9763;SDS011;4921;43.214;27.936;2023-05-20T11:53:24;9.80;;;4.43;;
9763;SDS011;4921;43.214;27.936;2023-05-20T11:55:53;10.13;;;4.80;;
9763;SDS011;4921;43.214;27.936;2023-05-20T11:58:22;5.83;;;4.97;;
9763;SDS011;4921;43.214;27.936;2023-05-20T12:00:50;6.07;;;4.47;;
9763;SDS011;4921;43.214;27.936;2023-05-20T12:03:17;8.03;;;4.93;;
9763;SDS011;4921;43.214;27.936;2023-05-20T12:05:44;7.17;;;4.80;;
9763;SDS011;4921;43.214;27.936;2023-05-20T12:08:12;9.67;;;4.77;;
9763;SDS011;4921;43.214;27.936;2023-05-20T12:10:39;5.73;;;4.80;;
9763;SDS011;4921;43.214;27.936;2023-05-20T12:13:08;9.43;;;5.10;;
9763;SDS011;4921;43.214;27.936;2023-05-20T12:15:37;9.50;;;5.60;;
9763;SDS011;4921;43.214;27.936;2023-05-20T12:18:04;11.30;;;5.60;;
9763;SDS011;4921;43.214;27.936;2023-05-20T12:20:31;5.13;;;4.67;;
9763;SDS011;4921;43.214;27.936;2023-05-20T12:22:59;9.73;;;5.33;;
9763;SDS011;4921;43.214;27.936;2023-05-20T12:25:26;6.83;;;5.30;;
9763;SDS011;4921;43.214;27.936;2023-05-20T12:27:54;6.40;;;5.30;;
9763;SDS011;4921;43.214;27.936;2023-05-20T12:30:23;8.33;;;5.70;;
9763;SDS011;4921;43.214;27.936;2023-05-20T12:32:50;5.30;;;4.57;;
9763;SDS011;4921;43.214;27.936;2023-05-20T12:35:23;7.40;;;5.20;;
9763;SDS011;4921;43.214;27.936;2023-05-20T12:37:51;10.47;;;4.93;;
9763;SDS011;4921;43.214;27.936;2023-05-20T12:40:18;5.77;;;4.33;;
9763;SDS011;4921;43.214;27.936;2023-05-20T12:42:45;8.43;;;5.10;;
9763;SDS011;4921;43.214;27.936;2023-05-20T12:45:12;10.87;;;5.17;;
9763;SDS011;4921;43.214;27.936;2023-05-20T12:47:41;7.40;;;3.90;;
9763;SDS011;4921;43.214;27.936;2023-05-20T12:50:08;7.30;;;4.27;;
9763;SDS011;4921;43.214;27.936;2023-05-20T12:52:35;5.60;;;3.83;;
9763;SDS011;4921;43.214;27.936;2023-05-20T12:55:02;5.07;;;4.07;;
9763;SDS011;4921;43.214;27.936;2023-05-20T12:57:37;7.83;;;4.53;;
9763;SDS011;4921;43.214;27.936;2023-05-20T13:03:00;9.50;;;5.20;;
9763;SDS011;4921;43.214;27.936;2023-05-20T13:05:28;10.07;;;4.60;;
9763;SDS011;4921;43.214;27.936;2023-05-20T13:07:54;7.87;;;5.00;;
9763;SDS011;4921;43.214;27.936;2023-05-20T13:10:21;10.03;;;5.47;;
9763;SDS011;4921;43.214;27.936;2023-05-20T13:12:48;9.97;;;5.30;;
9763;SDS011;4921;43.214;27.936;2023-05-20T13:15:15;10.73;;;5.00;;
9763;SDS011;4921;43.214;27.936;2023-05-20T13:17:42;7.80;;;4.70;;
9763;SDS011;4921;43.214;27.936;2023-05-20T13:20:12;7.77;;;5.00;;
9763;SDS011;4921;43.214;27.936;2023-05-20T13:22:39;9.90;;;6.03;;
9763;SDS011;4921;43.214;27.936;2023-05-20T13:25:06;9.83;;;4.97;;
9763;SDS011;4921;43.214;27.936;2023-05-20T13:27:34;10.43;;;5.13;;
9763;SDS011;4921;43.214;27.936;2023-05-20T13:30:01;7.67;;;4.17;;
9763;SDS011;4921;43.214;27.936;2023-05-20T13:32:45;10.73;;;4.70;;
9763;SDS011;4921;43.214;27.936;2023-05-20T13:35:14;9.77;;;4.20;;
9763;SDS011;4921;43.214;27.936;2023-05-20T13:37:41;11.37;;;4.87;;
9763;SDS011;4921;43.214;27.936;2023-05-20T13:40:08;8.60;;;6.10;;
9763;SDS011;4921;43.214;27.936;2023-05-20T13:42:36;8.50;;;5.03;;
9763;SDS011;4921;43.214;27.936;2023-05-20T13:45:03;8.73;;;5.10;;
9763;SDS011;4921;43.214;27.936;2023-05-20T13:47:30;7.30;;;4.43;;
9763;SDS011;4921;43.214;27.936;2023-05-20T13:49:57;8.17;;;4.97;;
9763;SDS011;4921;43.214;27.936;2023-05-20T13:52:25;9.70;;;4.93;;
9763;SDS011;4921;43.214;27.936;2023-05-20T13:54:52;7.77;;;5.37;;
9763;SDS011;4921;43.214;27.936;2023-05-20T13:57:19;9.53;;;5.23;;
9763;SDS011;4921;43.214;27.936;2023-05-20T13:59:46;9.50;;;4.80;;
9763;SDS011;4921;43.214;27.936;2023-05-20T14:02:13;9.83;;;5.33;;
9763;SDS011;4921;43.214;27.936;2023-05-20T14:04:40;8.17;;;4.80;;
9763;SDS011;4921;43.214;27.936;2023-05-20T14:07:09;7.47;;;5.10;;
9763;SDS011;4921;43.214;27.936;2023-05-20T14:09:37;9.83;;;5.37;;
9763;SDS011;4921;43.214;27.936;2023-05-20T14:12:04;7.90;;;5.30;;
9763;SDS011;4921;43.214;27.936;2023-05-20T14:14:31;8.97;;;5.23;;
9763;SDS011;4921;43.214;27.936;2023-05-20T14:16:58;12.43;;;4.87;;
9763;SDS011;4921;43.214;27.936;2023-05-20T14:19:25;9.37;;;4.90;;
9763;SDS011;4921;43.214;27.936;2023-05-20T14:21:52;6.83;;;4.47;;
9763;SDS011;4921;43.214;27.936;2023-05-20T14:24:19;8.57;;;4.53;;
9763;SDS011;4921;43.214;27.936;2023-05-20T14:26:48;8.17;;;4.80;;
9763;SDS011;4921;43.214;27.936;2023-05-20T14:29:15;5.60;;;4.57;;
9763;SDS011;4921;43.214;27.936;2023-05-20T14:31:42;10.90;;;5.00;;
9763;SDS011;4921;43.214;27.936;2023-05-20T14:34:09;7.03;;;4.57;;
9763;SDS011;4921;43.214;27.936;2023-05-20T14:36:36;9.50;;;4.83;;
9763;SDS011;4921;43.214;27.936;2023-05-20T14:39:03;9.60;;;4.90;;
9763;SDS011;4921;43.214;27.936;2023-05-20T14:41:30;10.40;;;4.93;;
9763;SDS011;4921;43.214;27.936;2023-05-20T14:43:59;7.07;;;4.50;;
9763;SDS011;4921;43.214;27.936;2023-05-20T14:46:26;6.80;;;4.67;;
9763;SDS011;4921;43.214;27.936;2023-05-20T14:48:53;8.60;;;4.50;;
9763;SDS011;4921;43.214;27.936;2023-05-20T14:51:20;10.00;;;5.10;;
9763;SDS011;4921;43.214;27.936;2023-05-20T14:53:46;9.93;;;4.77;;
9763;SDS011;4921;43.214;27.936;2023-05-20T14:56:13;7.63;;;4.47;;
9763;SDS011;4921;43.214;27.936;2023-05-20T14:58:40;8.17;;;5.13;;
9763;SDS011;4921;43.214;27.936;2023-05-20T15:01:09;9.10;;;5.40;;
9763;SDS011;4921;43.214;27.936;2023-05-20T15:03:35;6.30;;;4.47;;
9763;SDS011;4921;43.214;27.936;2023-05-20T15:06:02;6.97;;;4.87;;
9763;SDS011;4921;43.214;27.936;2023-05-20T15:08:30;8.67;;;5.00;;
9763;SDS011;4921;43.214;27.936;2023-05-20T15:10:57;8.87;;;4.40;;